sensor_id;sensor_type;location;lat;lon;timestamp;P1;durP1;ratioP1;P2;durP2;ratioP2
11817;SDS011;5966;52.402;5.322;2023-04-06T00:02:11;9.20;;;6.30;;
11817;SDS011;5966;52.402;5.322;2023-04-06T00:04:39;9.67;;;6.27;;
11817;SDS011;5966;52.402;5.322;2023-04-06T00:07:07;9.63;;;6.47;;
11817;SDS011;5966;52.402;5.322;2023-04-06T00:09:35;11.47;;;5.90;;
11817;SDS011;5966;52.402;5.322;2023-04-06T00:12:03;8.20;;;5.80;;
11817;SDS011;5966;52.402;5.322;2023-04-06T00:14:31;9.87;;;6.33;;
11817;SDS011;5966;52.402;5.322;2023-04-06T00:17:01;8.37;;;6.23;;
11817;SDS011;5966;52.402;5.322;2023-04-06T00:19:29;10.10;;;6.00;;
11817;SDS011;5966;52.402;5.322;2023-04-06T00:21:57;7.37;;;6.13;;
11817;SDS011;5966;52.402;5.322;2023-04-06T00:24:28;8.40;;;6.47;;
11817;SDS011;5966;52.402;5.322;2023-04-06T00:26:56;8.63;;;6.07;;
11817;SDS011;5966;52.402;5.322;2023-04-06T00:29:24;8.33;;;5.73;;
11817;SDS011;5966;52.402;5.322;2023-04-06T00:31:58;9.20;;;6.57;;
11817;SDS011;5966;52.402;5.322;2023-04-06T00:34:32;8.03;;;6.13;;
11817;SDS011;5966;52.402;5.322;2023-04-06T00:37:10;8.17;;;6.07;;
11817;SDS011;5966;52.402;5.322;2023-04-06T00:39:38;9.13;;;6.57;;
11817;SDS011;5966;52.402;5.322;2023-04-06T00:42:07;8.20;;;6.57;;
11817;SDS011;5966;52.402;5.322;2023-04-06T00:44:39;8.17;;;6.30;;
11817;SDS011;5966;52.402;5.322;2023-04-06T00:47:07;8.80;;;5.70;;
11817;SDS011;5966;52.402;5.322;2023-04-06T00:49:37;11.43;;;6.50;;
11817;SDS011;5966;52.402;5.322;2023-04-06T00:52:05;8.23;;;6.50;;
11817;SDS011;5966;52.402;5.322;2023-04-06T00:54:33;7.93;;;6.40;;
11817;SDS011;5966;52.402;5.322;2023-04-06T00:57:01;12.00;;;6.50;;
11817;SDS011;5966;52.402;5.322;2023-04-06T00:59:29;10.50;;;6.37;;
11817;SDS011;5966;52.402;5.322;2023-04-06T01:01:57;9.03;;;6.23;;
11817;SDS011;5966;52.402;5.322;2023-04-06T01:04:25;9.23;;;6.03;;
11817;SDS011;5966;52.402;5.322;2023-04-06T01:06:55;8.83;;;6.27;;
11817;SDS011;5966;52.402;5.322;2023-04-06T01:09:23;8.77;;;6.27;;
11817;SDS011;5966;52.402;5.322;2023-04-06T01:11:51;8.03;;;6.70;;
11817;SDS011;5966;52.402;5.322;2023-04-06T01:14:19;8.80;;;6.17;;
11817;SDS011;5966;52.402;5.322;2023-04-06T01:16:47;12.50;;;6.07;;
11817;SDS011;5966;52.402;5.322;2023-04-06T01:19:15;8.33;;;5.77;;
11817;SDS011;5966;52.402;5.322;2023-04-06T01:21:43;7.60;;;6.00;;
11817;SDS011;5966;52.402;5.322;2023-04-06T01:24:13;8.27;;;5.87;;
11817;SDS011;5966;52.402;5.322;2023-04-06T01:26:41;7.07;;;5.60;;
11817;SDS011;5966;52.402;5.322;2023-04-06T01:29:14;8.33;;;5.50;;
11817;SDS011;5966;52.402;5.322;2023-04-06T01:31:42;8.27;;;5.83;;
11817;SDS011;5966;52.402;5.322;2023-04-06T01:34:10;8.17;;;5.93;;
11817;SDS011;5966;52.402;5.322;2023-04-06T01:36:38;8.03;;;5.60;;
11817;SDS011;5966;52.402;5.322;2023-04-06T01:39:06;6.90;;;5.30;;
11817;SDS011;5966;52.402;5.322;2023-04-06T01:41:35;8.67;;;5.47;;
11817;SDS011;5966;52.402;5.322;2023-04-06T01:44:04;7.40;;;5.80;;
11817;SDS011;5966;52.402;5.322;2023-04-06T01:46:32;8.10;;;5.97;;
11817;SDS011;5966;52.402;5.322;2023-04-06T01:49:00;6.90;;;5.90;;
11817;SDS011;5966;52.402;5.322;2023-04-06T01:51:28;8.43;;;5.40;;
11817;SDS011;5966;52.402;5.322;2023-04-06T01:53:56;7.80;;;5.50;;
11817;SDS011;5966;52.402;5.322;2023-04-06T01:56:24;7.77;;;6.00;;
11817;SDS011;5966;52.402;5.322;2023-04-06T01:58:54;7.63;;;6.30;;
11817;SDS011;5966;52.402;5.322;2023-04-06T02:01:23;7.50;;;5.80;;
11817;SDS011;5966;52.402;5.322;2023-04-06T02:03:54;9.73;;;6.40;;
11817;SDS011;5966;52.402;5.322;2023-04-06T02:06:24;7.60;;;6.00;;
11817;SDS011;5966;52.402;5.322;2023-04-06T02:09:06;8.93;;;6.30;;
11817;SDS011;5966;52.402;5.322;2023-04-06T02:11:36;13.67;;;6.63;;
11817;SDS011;5966;52.402;5.322;2023-04-06T02:14:07;8.77;;;5.57;;
11817;SDS011;5966;52.402;5.322;2023-04-06T02:16:53;7.50;;;5.87;;
11817;SDS011;5966;52.402;5.322;2023-04-06T02:19:23;7.70;;;6.43;;
11817;SDS011;5966;52.402;5.322;2023-04-06T02:21:51;9.27;;;6.13;;
11817;SDS011;5966;52.402;5.322;2023-04-06T02:24:19;7.13;;;5.70;;
11817;SDS011;5966;52.402;5.322;2023-04-06T02:26:47;8.13;;;6.30;;
11817;SDS011;5966;52.402;5.322;2023-04-06T02:29:17;9.77;;;6.07;;
11817;SDS011;5966;52.402;5.322;2023-04-06T02:31:46;7.87;;;5.53;;
11817;SDS011;5966;52.402;5.322;2023-04-06T02:34:15;8.17;;;6.07;;
11817;SDS011;5966;52.402;5.322;2023-04-06T02:36:44;7.57;;;5.90;;
11817;SDS011;5966;52.402;5.322;2023-04-06T02:39:13;8.40;;;5.63;;
11817;SDS011;5966;52.402;5.322;2023-04-06T02:41:43;9.57;;;6.07;;
11817;SDS011;5966;52.402;5.322;2023-04-06T02:44:15;9.47;;;5.93;;
11817;SDS011;5966;52.402;5.322;2023-04-06T02:46:52;10.07;;;6.13;;
11817;SDS011;5966;52.402;5.322;2023-04-06T02:49:20;9.90;;;5.70;;
11817;SDS011;5966;52.402;5.322;2023-04-06T02:51:48;9.23;;;5.70;;
11817;SDS011;5966;52.402;5.322;2023-04-06T02:54:16;7.50;;;6.00;;
11817;SDS011;5966;52.402;5.322;2023-04-06T02:56:44;7.80;;;5.67;;
11817;SDS011;5966;52.402;5.322;2023-04-06T02:59:12;7.67;;;5.53;;
11817;SDS011;5966;52.402;5.322;2023-04-06T03:01:40;9.07;;;5.80;;
11817;SDS011;5966;52.402;5.322;2023-04-06T03:04:13;8.00;;;6.10;;
11817;SDS011;5966;52.402;5.322;2023-04-06T03:06:44;7.87;;;5.93;;
11817;SDS011;5966;52.402;5.322;2023-04-06T03:09:16;8.00;;;5.90;;
11817;SDS011;5966;52.402;5.322;2023-04-06T03:11:48;7.73;;;6.37;;
11817;SDS011;5966;52.402;5.322;2023-04-06T03:14:16;7.17;;;5.77;;
11817;SDS011;5966;52.402;5.322;2023-04-06T03:16:47;7.07;;;5.73;;
11817;SDS011;5966;52.402;5.322;2023-04-06T03:19:19;9.13;;;6.57;;
11817;SDS011;5966;52.402;5.322;2023-04-06T03:21:47;10.07;;;6.07;;
11817;SDS011;5966;52.402;5.322;2023-04-06T03:24:15;8.80;;;6.00;;
11817;SDS011;5966;52.402;5.322;2023-04-06T03:26:43;9.50;;;6.33;;
11817;SDS011;5966;52.402;5.322;2023-04-06T03:29:11;8.83;;;6.33;;
11817;SDS011;5966;52.402;5.322;2023-04-06T03:31:39;10.10;;;6.90;;
11817;SDS011;5966;52.402;5.322;2023-04-06T03:34:07;8.27;;;6.17;;
11817;SDS011;5966;52.402;5.322;2023-04-06T03:36:36;8.67;;;6.47;;
11817;SDS011;5966;52.402;5.322;2023-04-06T03:39:04;11.60;;;6.57;;
11817;SDS011;5966;52.402;5.322;2023-04-06T03:41:33;8.27;;;6.07;;
11817;SDS011;5966;52.402;5.322;2023-04-06T03:44:01;9.07;;;6.10;;
11817;SDS011;5966;52.402;5.322;2023-04-06T03:46:30;8.83;;;6.23;;
11817;SDS011;5966;52.402;5.322;2023-04-06T03:49:01;8.87;;;6.53;;
11817;SDS011;5966;52.402;5.322;2023-04-06T03:51:29;7.27;;;6.07;;
11817;SDS011;5966;52.402;5.322;2023-04-06T03:53:58;8.43;;;6.57;;
11817;SDS011;5966;52.402;5.322;2023-04-06T03:56:26;9.90;;;6.23;;
11817;SDS011;5966;52.402;5.322;2023-04-06T03:58:54;9.50;;;6.43;;
11817;SDS011;5966;52.402;5.322;2023-04-06T04:01:31;9.33;;;6.63;;
11817;SDS011;5966;52.402;5.322;2023-04-06T04:03:59;8.17;;;6.33;;
11817;SDS011;5966;52.402;5.322;2023-04-06T04:06:27;7.87;;;6.03;;
11817;SDS011;5966;52.402;5.322;2023-04-06T04:08:59;9.83;;;6.50;;
11817;SDS011;5966;52.402;5.322;2023-04-06T04:11:28;10.13;;;6.70;;
11817;SDS011;5966;52.402;5.322;2023-04-06T04:13:58;7.67;;;6.67;;
11817;SDS011;5966;52.402;5.322;2023-04-06T04:16:26;9.57;;;6.97;;
11817;SDS011;5966;52.402;5.322;2023-04-06T04:18:55;9.03;;;7.33;;
11817;SDS011;5966;52.402;5.322;2023-04-06T04:21:29;9.50;;;6.67;;
11817;SDS011;5966;52.402;5.322;2023-04-06T04:24:07;8.70;;;6.30;;
11817;SDS011;5966;52.402;5.322;2023-04-06T04:26:38;10.13;;;6.80;;
11817;SDS011;5966;52.402;5.322;2023-04-06T04:29:09;10.07;;;6.57;;
11817;SDS011;5966;52.402;5.322;2023-04-06T04:31:39;9.60;;;7.07;;
11817;SDS011;5966;52.402;5.322;2023-04-06T04:34:10;11.03;;;6.37;;
11817;SDS011;5966;52.402;5.322;2023-04-06T04:39:46;8.57;;;6.70;;
11817;SDS011;5966;52.402;5.322;2023-04-06T04:42:14;8.80;;;7.00;;
11817;SDS011;5966;52.402;5.322;2023-04-06T04:44:44;9.80;;;6.77;;
11817;SDS011;5966;52.402;5.322;2023-04-06T04:47:12;10.10;;;7.13;;
11817;SDS011;5966;52.402;5.322;2023-04-06T04:49:40;10.43;;;6.70;;
11817;SDS011;5966;52.402;5.322;2023-04-06T04:52:09;10.17;;;7.03;;
11817;SDS011;5966;52.402;5.322;2023-04-06T04:54:37;10.57;;;6.90;;
11817;SDS011;5966;52.402;5.322;2023-04-06T04:57:08;11.60;;;7.03;;
11817;SDS011;5966;52.402;5.322;2023-04-06T04:59:36;8.17;;;6.37;;
11817;SDS011;5966;52.402;5.322;2023-04-06T05:02:04;9.20;;;7.13;;
11817;SDS011;5966;52.402;5.322;2023-04-06T05:04:32;10.13;;;6.60;;
11817;SDS011;5966;52.402;5.322;2023-04-06T05:09:32;12.03;;;7.13;;
11817;SDS011;5966;52.402;5.322;2023-04-06T05:12:02;10.07;;;7.27;;
11817;SDS011;5966;52.402;5.322;2023-04-06T05:14:32;9.77;;;6.93;;
11817;SDS011;5966;52.402;5.322;2023-04-06T05:17:00;11.03;;;7.07;;
11817;SDS011;5966;52.402;5.322;2023-04-06T05:19:29;10.77;;;7.40;;
11817;SDS011;5966;52.402;5.322;2023-04-06T05:21:57;10.23;;;7.57;;
11817;SDS011;5966;52.402;5.322;2023-04-06T05:24:25;11.73;;;7.47;;
11817;SDS011;5966;52.402;5.322;2023-04-06T05:26:54;9.07;;;7.30;;
11817;SDS011;5966;52.402;5.322;2023-04-06T05:29:22;12.67;;;7.80;;
11817;SDS011;5966;52.402;5.322;2023-04-06T05:31:52;10.13;;;7.87;;
11817;SDS011;5966;52.402;5.322;2023-04-06T05:34:19;12.40;;;7.03;;
11817;SDS011;5966;52.402;5.322;2023-04-06T05:39:32;10.43;;;7.70;;
11817;SDS011;5966;52.402;5.322;2023-04-06T05:42:01;11.40;;;7.50;;
11817;SDS011;5966;52.402;5.322;2023-04-06T05:44:31;9.80;;;7.40;;
11817;SDS011;5966;52.402;5.322;2023-04-06T05:47:39;12.33;;;7.57;;
11817;SDS011;5966;52.402;5.322;2023-04-06T05:50:07;10.77;;;8.00;;
11817;SDS011;5966;52.402;5.322;2023-04-06T05:52:35;11.63;;;7.93;;
11817;SDS011;5966;52.402;5.322;2023-04-06T05:55:04;11.47;;;7.60;;
11817;SDS011;5966;52.402;5.322;2023-04-06T05:57:35;10.47;;;7.97;;
11817;SDS011;5966;52.402;5.322;2023-04-06T06:00:04;10.87;;;7.70;;
11817;SDS011;5966;52.402;5.322;2023-04-06T06:02:34;10.80;;;8.17;;
11817;SDS011;5966;52.402;5.322;2023-04-06T06:05:06;12.30;;;8.33;;
11817;SDS011;5966;52.402;5.322;2023-04-06T06:07:35;12.17;;;8.53;;
11817;SDS011;5966;52.402;5.322;2023-04-06T06:10:03;10.73;;;8.20;;
11817;SDS011;5966;52.402;5.322;2023-04-06T06:12:32;11.10;;;8.20;;
11817;SDS011;5966;52.402;5.322;2023-04-06T06:15:00;12.30;;;8.33;;
11817;SDS011;5966;52.402;5.322;2023-04-06T06:17:28;13.10;;;8.63;;
11817;SDS011;5966;52.402;5.322;2023-04-06T06:19:56;10.60;;;8.37;;
11817;SDS011;5966;52.402;5.322;2023-04-06T06:22:25;12.30;;;8.37;;
11817;SDS011;5966;52.402;5.322;2023-04-06T06:24:53;11.67;;;8.53;;
11817;SDS011;5966;52.402;5.322;2023-04-06T06:27:21;14.00;;;8.57;;
11817;SDS011;5966;52.402;5.322;2023-04-06T06:29:49;13.53;;;8.60;;
11817;SDS011;5966;52.402;5.322;2023-04-06T06:32:17;12.30;;;8.73;;
11817;SDS011;5966;52.402;5.322;2023-04-06T06:34:46;11.30;;;8.93;;
11817;SDS011;5966;52.402;5.322;2023-04-06T06:37:14;14.53;;;9.17;;
11817;SDS011;5966;52.402;5.322;2023-04-06T06:39:46;13.53;;;9.20;;
11817;SDS011;5966;52.402;5.322;2023-04-06T06:42:15;10.80;;;9.27;;
11817;SDS011;5966;52.402;5.322;2023-04-06T06:44:45;16.73;;;9.30;;
11817;SDS011;5966;52.402;5.322;2023-04-06T06:47:13;12.80;;;9.20;;
11817;SDS011;5966;52.402;5.322;2023-04-06T06:49:42;14.60;;;10.43;;
11817;SDS011;5966;52.402;5.322;2023-04-06T06:52:15;14.10;;;9.97;;
11817;SDS011;5966;52.402;5.322;2023-04-06T06:54:46;20.30;;;10.60;;
11817;SDS011;5966;52.402;5.322;2023-04-06T07:00:00;15.23;;;10.40;;
11817;SDS011;5966;52.402;5.322;2023-04-06T07:02:31;15.07;;;10.90;;
11817;SDS011;5966;52.402;5.322;2023-04-06T07:05:02;14.70;;;10.20;;
11817;SDS011;5966;52.402;5.322;2023-04-06T07:07:51;14.40;;;10.97;;
11817;SDS011;5966;52.402;5.322;2023-04-06T07:10:20;15.20;;;10.27;;
11817;SDS011;5966;52.402;5.322;2023-04-06T07:12:49;15.00;;;10.97;;
11817;SDS011;5966;52.402;5.322;2023-04-06T07:15:23;14.57;;;10.70;;
11817;SDS011;5966;52.402;5.322;2023-04-06T07:17:51;14.80;;;11.17;;
11817;SDS011;5966;52.402;5.322;2023-04-06T07:20:20;16.23;;;11.30;;
11817;SDS011;5966;52.402;5.322;2023-04-06T07:22:48;14.63;;;11.07;;
11817;SDS011;5966;52.402;5.322;2023-04-06T07:25:16;16.67;;;11.33;;
11817;SDS011;5966;52.402;5.322;2023-04-06T07:27:46;16.03;;;10.53;;
11817;SDS011;5966;52.402;5.322;2023-04-06T07:30:14;13.77;;;11.00;;
11817;SDS011;5966;52.402;5.322;2023-04-06T07:32:44;17.03;;;11.30;;
11817;SDS011;5966;52.402;5.322;2023-04-06T07:35:12;16.60;;;11.80;;
11817;SDS011;5966;52.402;5.322;2023-04-06T07:37:42;14.33;;;11.33;;
11817;SDS011;5966;52.402;5.322;2023-04-06T07:40:11;16.87;;;11.13;;
11817;SDS011;5966;52.402;5.322;2023-04-06T07:42:40;15.17;;;11.47;;
11817;SDS011;5966;52.402;5.322;2023-04-06T07:45:09;17.87;;;11.03;;
11817;SDS011;5966;52.402;5.322;2023-04-06T07:47:37;14.27;;;10.77;;
11817;SDS011;5966;52.402;5.322;2023-04-06T07:50:06;19.17;;;11.10;;
11817;SDS011;5966;52.402;5.322;2023-04-06T07:52:35;16.60;;;11.63;;
11817;SDS011;5966;52.402;5.322;2023-04-06T07:55:04;18.07;;;11.33;;
11817;SDS011;5966;52.402;5.322;2023-04-06T07:57:43;19.93;;;12.30;;
11817;SDS011;5966;52.402;5.322;2023-04-06T08:00:15;19.53;;;11.20;;
11817;SDS011;5966;52.402;5.322;2023-04-06T08:02:43;17.17;;;11.60;;
11817;SDS011;5966;52.402;5.322;2023-04-06T08:05:16;15.77;;;11.07;;
11817;SDS011;5966;52.402;5.322;2023-04-06T08:07:47;16.00;;;11.03;;
11817;SDS011;5966;52.402;5.322;2023-04-06T08:10:18;17.93;;;12.33;;
11817;SDS011;5966;52.402;5.322;2023-04-06T08:12:47;15.97;;;11.60;;
11817;SDS011;5966;52.402;5.322;2023-04-06T08:15:17;19.40;;;13.00;;
11817;SDS011;5966;52.402;5.322;2023-04-06T08:17:45;17.37;;;12.60;;
11817;SDS011;5966;52.402;5.322;2023-04-06T08:20:13;15.23;;;11.80;;
11817;SDS011;5966;52.402;5.322;2023-04-06T08:22:41;19.67;;;12.53;;
11817;SDS011;5966;52.402;5.322;2023-04-06T08:25:15;17.07;;;11.63;;
11817;SDS011;5966;52.402;5.322;2023-04-06T08:27:52;18.60;;;12.67;;
11817;SDS011;5966;52.402;5.322;2023-04-06T08:30:24;18.10;;;12.63;;
11817;SDS011;5966;52.402;5.322;2023-04-06T08:32:52;18.60;;;12.10;;
11817;SDS011;5966;52.402;5.322;2023-04-06T08:35:20;20.33;;;12.00;;
11817;SDS011;5966;52.402;5.322;2023-04-06T08:37:49;16.53;;;12.17;;
11817;SDS011;5966;52.402;5.322;2023-04-06T08:40:22;17.90;;;12.53;;
11817;SDS011;5966;52.402;5.322;2023-04-06T08:43:09;17.30;;;12.30;;
11817;SDS011;5966;52.402;5.322;2023-04-06T08:45:59;17.30;;;12.43;;
11817;SDS011;5966;52.402;5.322;2023-04-06T08:48:27;17.00;;;11.77;;
11817;SDS011;5966;52.402;5.322;2023-04-06T08:50:56;20.30;;;13.10;;
11817;SDS011;5966;52.402;5.322;2023-04-06T08:53:26;20.77;;;13.90;;
11817;SDS011;5966;52.402;5.322;2023-04-06T08:55:54;20.27;;;13.33;;
11817;SDS011;5966;52.402;5.322;2023-04-06T08:58:32;18.80;;;12.43;;
11817;SDS011;5966;52.402;5.322;2023-04-06T09:04:10;18.87;;;12.97;;
11817;SDS011;5966;52.402;5.322;2023-04-06T09:06:54;24.13;;;13.50;;
11817;SDS011;5966;52.402;5.322;2023-04-06T09:09:22;19.17;;;13.03;;
11817;SDS011;5966;52.402;5.322;2023-04-06T09:11:51;21.77;;;13.20;;
11817;SDS011;5966;52.402;5.322;2023-04-06T09:14:33;19.83;;;13.07;;
11817;SDS011;5966;52.402;5.322;2023-04-06T09:17:03;19.60;;;13.37;;
11817;SDS011;5966;52.402;5.322;2023-04-06T09:19:46;21.23;;;14.10;;
11817;SDS011;5966;52.402;5.322;2023-04-06T09:22:17;20.83;;;14.53;;
11817;SDS011;5966;52.402;5.322;2023-04-06T09:25:02;21.67;;;13.90;;
11817;SDS011;5966;52.402;5.322;2023-04-06T09:27:32;20.33;;;14.00;;
11817;SDS011;5966;52.402;5.322;2023-04-06T09:30:05;19.03;;;13.57;;
11817;SDS011;5966;52.402;5.322;2023-04-06T09:32:43;17.73;;;12.47;;
11817;SDS011;5966;52.402;5.322;2023-04-06T09:35:24;20.17;;;13.67;;
11817;SDS011;5966;52.402;5.322;2023-04-06T09:37:54;20.17;;;14.83;;
11817;SDS011;5966;52.402;5.322;2023-04-06T09:40:26;20.67;;;13.87;;
11817;SDS011;5966;52.402;5.322;2023-04-06T09:42:55;20.90;;;14.27;;
11817;SDS011;5966;52.402;5.322;2023-04-06T09:45:25;22.50;;;14.53;;
11817;SDS011;5966;52.402;5.322;2023-04-06T09:47:59;20.90;;;14.60;;
11817;SDS011;5966;52.402;5.322;2023-04-06T09:50:29;19.30;;;14.13;;
11817;SDS011;5966;52.402;5.322;2023-04-06T09:52:59;19.03;;;14.87;;
11817;SDS011;5966;52.402;5.322;2023-04-06T09:55:30;21.30;;;14.67;;
11817;SDS011;5966;52.402;5.322;2023-04-06T09:58:03;19.37;;;13.87;;
11817;SDS011;5966;52.402;5.322;2023-04-06T10:00:40;18.57;;;13.77;;
11817;SDS011;5966;52.402;5.322;2023-04-06T10:03:13;22.77;;;14.57;;
11817;SDS011;5966;52.402;5.322;2023-04-06T10:05:52;21.63;;;15.40;;
11817;SDS011;5966;52.402;5.322;2023-04-06T10:08:24;22.77;;;15.37;;
11817;SDS011;5966;52.402;5.322;2023-04-06T10:11:03;23.17;;;14.90;;
11817;SDS011;5966;52.402;5.322;2023-04-06T10:13:31;21.03;;;16.17;;
11817;SDS011;5966;52.402;5.322;2023-04-06T10:16:00;24.10;;;15.67;;
11817;SDS011;5966;52.402;5.322;2023-04-06T10:18:30;23.80;;;15.37;;
11817;SDS011;5966;52.402;5.322;2023-04-06T10:21:04;21.83;;;15.30;;
11817;SDS011;5966;52.402;5.322;2023-04-06T10:23:41;23.70;;;14.60;;
11817;SDS011;5966;52.402;5.322;2023-04-06T10:26:12;18.57;;;13.13;;
11817;SDS011;5966;52.402;5.322;2023-04-06T10:29:02;15.47;;;10.90;;
11817;SDS011;5966;52.402;5.322;2023-04-06T10:31:31;15.57;;;10.23;;
11817;SDS011;5966;52.402;5.322;2023-04-06T10:34:11;20.40;;;10.37;;
11817;SDS011;5966;52.402;5.322;2023-04-06T10:36:42;15.40;;;9.37;;
11817;SDS011;5966;52.402;5.322;2023-04-06T10:39:12;14.40;;;10.20;;
11817;SDS011;5966;52.402;5.322;2023-04-06T10:41:45;13.40;;;9.70;;
11817;SDS011;5966;52.402;5.322;2023-04-06T10:44:17;14.80;;;9.80;;
11817;SDS011;5966;52.402;5.322;2023-04-06T10:46:52;11.97;;;9.33;;
11817;SDS011;5966;52.402;5.322;2023-04-06T10:49:21;12.93;;;8.97;;
11817;SDS011;5966;52.402;5.322;2023-04-06T10:51:56;15.93;;;10.70;;
11817;SDS011;5966;52.402;5.322;2023-04-06T10:54:32;12.77;;;9.10;;
11817;SDS011;5966;52.402;5.322;2023-04-06T10:57:01;14.60;;;9.30;;
11817;SDS011;5966;52.402;5.322;2023-04-06T10:59:35;10.67;;;8.00;;
11817;SDS011;5966;52.402;5.322;2023-04-06T11:02:21;12.43;;;7.07;;
11817;SDS011;5966;52.402;5.322;2023-04-06T11:04:56;8.93;;;6.63;;
11817;SDS011;5966;52.402;5.322;2023-04-06T11:10:20;9.07;;;6.80;;
11817;SDS011;5966;52.402;5.322;2023-04-06T11:12:52;9.30;;;6.30;;
11817;SDS011;5966;52.402;5.322;2023-04-06T11:15:25;8.77;;;6.07;;
11817;SDS011;5966;52.402;5.322;2023-04-06T11:17:53;5.70;;;5.03;;
11817;SDS011;5966;52.402;5.322;2023-04-06T11:20:21;6.73;;;5.10;;
11817;SDS011;5966;52.402;5.322;2023-04-06T11:22:51;6.73;;;4.70;;
11817;SDS011;5966;52.402;5.322;2023-04-06T11:25:19;3.87;;;3.47;;
11817;SDS011;5966;52.402;5.322;2023-04-06T11:27:49;4.00;;;3.50;;
11817;SDS011;5966;52.402;5.322;2023-04-06T11:30:26;4.97;;;2.90;;
11817;SDS011;5966;52.402;5.322;2023-04-06T11:33:01;3.40;;;2.23;;
11817;SDS011;5966;52.402;5.322;2023-04-06T11:35:30;3.53;;;2.10;;
11817;SDS011;5966;52.402;5.322;2023-04-06T11:38:03;2.57;;;1.90;;
11817;SDS011;5966;52.402;5.322;2023-04-06T11:40:33;2.30;;;2.00;;
11817;SDS011;5966;52.402;5.322;2023-04-06T11:43:01;2.73;;;2.33;;
11817;SDS011;5966;52.402;5.322;2023-04-06T11:45:39;2.67;;;2.13;;
11817;SDS011;5966;52.402;5.322;2023-04-06T11:48:17;2.87;;;2.13;;
11817;SDS011;5966;52.402;5.322;2023-04-06T11:50:46;2.77;;;2.23;;
11817;SDS011;5966;52.402;5.322;2023-04-06T11:53:16;3.67;;;2.63;;
11817;SDS011;5966;52.402;5.322;2023-04-06T11:55:47;3.00;;;2.70;;
11817;SDS011;5966;52.402;5.322;2023-04-06T11:59:04;3.60;;;2.90;;
11817;SDS011;5966;52.402;5.322;2023-04-06T12:01:44;4.10;;;3.20;;
11817;SDS011;5966;52.402;5.322;2023-04-06T12:04:12;3.83;;;2.90;;
11817;SDS011;5966;52.402;5.322;2023-04-06T12:06:40;2.93;;;2.57;;
11817;SDS011;5966;52.402;5.322;2023-04-06T12:09:27;2.93;;;2.67;;
11817;SDS011;5966;52.402;5.322;2023-04-06T12:14:34;5.00;;;3.20;;
11817;SDS011;5966;52.402;5.322;2023-04-06T12:17:04;4.37;;;3.30;;
11817;SDS011;5966;52.402;5.322;2023-04-06T12:19:57;5.23;;;3.70;;
11817;SDS011;5966;52.402;5.322;2023-04-06T12:22:48;5.37;;;3.77;;
11817;SDS011;5966;52.402;5.322;2023-04-06T12:25:20;5.13;;;4.10;;
11817;SDS011;5966;52.402;5.322;2023-04-06T12:27:55;4.33;;;3.93;;
11817;SDS011;5966;52.402;5.322;2023-04-06T12:30:24;5.63;;;4.60;;
11817;SDS011;5966;52.402;5.322;2023-04-06T12:32:51;8.17;;;4.43;;
11817;SDS011;5966;52.402;5.322;2023-04-06T12:35:21;4.50;;;4.10;;
11817;SDS011;5966;52.402;5.322;2023-04-06T12:37:49;5.03;;;4.53;;
11817;SDS011;5966;52.402;5.322;2023-04-06T12:40:19;5.73;;;4.40;;
11817;SDS011;5966;52.402;5.322;2023-04-06T12:43:18;5.57;;;4.23;;
11817;SDS011;5966;52.402;5.322;2023-04-06T12:45:46;7.77;;;5.13;;
11817;SDS011;5966;52.402;5.322;2023-04-06T12:48:17;5.20;;;4.47;;
11817;SDS011;5966;52.402;5.322;2023-04-06T12:50:53;5.97;;;5.00;;
11817;SDS011;5966;52.402;5.322;2023-04-06T12:53:21;6.00;;;4.87;;
11817;SDS011;5966;52.402;5.322;2023-04-06T12:55:51;7.33;;;5.33;;
11817;SDS011;5966;52.402;5.322;2023-04-06T12:58:22;6.40;;;5.30;;
11817;SDS011;5966;52.402;5.322;2023-04-06T13:00:58;5.17;;;4.67;;
11817;SDS011;5966;52.402;5.322;2023-04-06T13:03:43;8.20;;;5.47;;
11817;SDS011;5966;52.402;5.322;2023-04-06T13:06:11;6.53;;;5.27;;
11817;SDS011;5966;52.402;5.322;2023-04-06T13:08:45;6.87;;;5.33;;
11817;SDS011;5966;52.402;5.322;2023-04-06T13:11:17;8.67;;;6.10;;
11817;SDS011;5966;52.402;5.322;2023-04-06T13:13:48;8.20;;;6.03;;
11817;SDS011;5966;52.402;5.322;2023-04-06T13:16:16;6.77;;;5.60;;
11817;SDS011;5966;52.402;5.322;2023-04-06T13:18:45;6.57;;;5.93;;
11817;SDS011;5966;52.402;5.322;2023-04-06T13:21:16;8.63;;;6.33;;
11817;SDS011;5966;52.402;5.322;2023-04-06T13:23:47;7.00;;;5.80;;
11817;SDS011;5966;52.402;5.322;2023-04-06T13:26:15;7.57;;;6.17;;
11817;SDS011;5966;52.402;5.322;2023-04-06T13:28:55;7.03;;;5.97;;
11817;SDS011;5966;52.402;5.322;2023-04-06T13:31:25;7.40;;;6.17;;
11817;SDS011;5966;52.402;5.322;2023-04-06T13:34:07;7.40;;;5.60;;
11817;SDS011;5966;52.402;5.322;2023-04-06T13:36:35;7.57;;;6.10;;
11817;SDS011;5966;52.402;5.322;2023-04-06T13:39:04;7.87;;;5.90;;
11817;SDS011;5966;52.402;5.322;2023-04-06T13:41:32;8.10;;;5.90;;
11817;SDS011;5966;52.402;5.322;2023-04-06T13:44:01;7.97;;;6.33;;
11817;SDS011;5966;52.402;5.322;2023-04-06T13:46:30;8.63;;;6.20;;
11817;SDS011;5966;52.402;5.322;2023-04-06T13:48:58;8.97;;;6.20;;
11817;SDS011;5966;52.402;5.322;2023-04-06T13:51:26;7.17;;;6.40;;
11817;SDS011;5966;52.402;5.322;2023-04-06T13:53:54;6.67;;;5.57;;
11817;SDS011;5966;52.402;5.322;2023-04-06T13:56:22;7.73;;;6.37;;
11817;SDS011;5966;52.402;5.322;2023-04-06T13:58:53;7.33;;;5.87;;
11817;SDS011;5966;52.402;5.322;2023-04-06T14:01:23;6.80;;;5.97;;
11817;SDS011;5966;52.402;5.322;2023-04-06T14:03:53;6.60;;;5.77;;
11817;SDS011;5966;52.402;5.322;2023-04-06T14:06:21;7.73;;;6.00;;
11817;SDS011;5966;52.402;5.322;2023-04-06T14:08:57;8.13;;;6.10;;
11817;SDS011;5966;52.402;5.322;2023-04-06T14:11:25;9.37;;;6.63;;
11817;SDS011;5966;52.402;5.322;2023-04-06T14:13:54;8.03;;;7.07;;
11817;SDS011;5966;52.402;5.322;2023-04-06T14:16:25;6.73;;;6.00;;
11817;SDS011;5966;52.402;5.322;2023-04-06T14:18:55;7.73;;;6.40;;
11817;SDS011;5966;52.402;5.322;2023-04-06T14:21:25;7.60;;;6.23;;
11817;SDS011;5966;52.402;5.322;2023-04-06T14:24:01;7.90;;;6.47;;
11817;SDS011;5966;52.402;5.322;2023-04-06T14:26:29;7.50;;;6.03;;
11817;SDS011;5966;52.402;5.322;2023-04-06T14:28:58;9.53;;;6.63;;
11817;SDS011;5966;52.402;5.322;2023-04-06T14:31:32;7.40;;;6.30;;
11817;SDS011;5966;52.402;5.322;2023-04-06T14:34:03;7.70;;;6.37;;
11817;SDS011;5966;52.402;5.322;2023-04-06T14:36:31;7.83;;;6.20;;
11817;SDS011;5966;52.402;5.322;2023-04-06T14:39:22;7.30;;;6.07;;
11817;SDS011;5966;52.402;5.322;2023-04-06T14:41:50;7.53;;;6.07;;
11817;SDS011;5966;52.402;5.322;2023-04-06T14:44:22;7.23;;;5.97;;
11817;SDS011;5966;52.402;5.322;2023-04-06T14:46:56;7.50;;;5.90;;
11817;SDS011;5966;52.402;5.322;2023-04-06T14:49:26;7.23;;;5.97;;
11817;SDS011;5966;52.402;5.322;2023-04-06T14:51:57;6.60;;;5.87;;
11817;SDS011;5966;52.402;5.322;2023-04-06T14:54:31;8.20;;;6.00;;
11817;SDS011;5966;52.402;5.322;2023-04-06T14:57:02;6.73;;;5.60;;
11817;SDS011;5966;52.402;5.322;2023-04-06T14:59:33;6.87;;;6.03;;
11817;SDS011;5966;52.402;5.322;2023-04-06T15:02:12;7.10;;;6.23;;
11817;SDS011;5966;52.402;5.322;2023-04-06T15:04:45;7.50;;;6.10;;
11817;SDS011;5966;52.402;5.322;2023-04-06T15:07:18;7.33;;;6.47;;
11817;SDS011;5966;52.402;5.322;2023-04-06T15:09:47;8.77;;;6.33;;
11817;SDS011;5966;52.402;5.322;2023-04-06T15:12:17;8.33;;;6.30;;
11817;SDS011;5966;52.402;5.322;2023-04-06T15:14:48;6.27;;;5.47;;
11817;SDS011;5966;52.402;5.322;2023-04-06T15:17:19;6.80;;;6.00;;
11817;SDS011;5966;52.402;5.322;2023-04-06T15:19:47;8.10;;;6.30;;
11817;SDS011;5966;52.402;5.322;2023-04-06T15:22:15;7.07;;;5.90;;
11817;SDS011;5966;52.402;5.322;2023-04-06T15:25:06;7.20;;;6.10;;
11817;SDS011;5966;52.402;5.322;2023-04-06T15:27:37;7.03;;;5.90;;
11817;SDS011;5966;52.402;5.322;2023-04-06T15:30:05;10.70;;;6.47;;
11817;SDS011;5966;52.402;5.322;2023-04-06T15:32:38;6.90;;;5.90;;
11817;SDS011;5966;52.402;5.322;2023-04-06T15:35:09;7.43;;;6.20;;
11817;SDS011;5966;52.402;5.322;2023-04-06T15:37:38;6.73;;;5.77;;